Time;durP1;ratioP1;P1;durP2;ratioP2;P2;SDS_P1;SDS_P2;PMS_P1;PMS_P2;Temp;Humidity;BMP_temperature;BMP_pressure;BME280_temperature;BME280_humidity;BME280_pressure;Samples;Min_cycle;Max_cycle;Signal;HPM_P1;HPM_P2
2021/10/20 00:01:46;;;;;;;9.65;8.75;;;17.30;97.00;;;;;;4208912;28;20101;-63
2021/10/20 00:04:08;;;;;;;9.65;8.73;;;17.30;97.00;;;;;;4193458;28;20692;-63
2021/10/20 00:06:30;;;;;;;10.27;9.27;;;17.30;97.10;;;;;;4227115;27;20055;-63
2021/10/20 00:08:52;;;;;;;8.82;8.02;;;17.30;96.80;;;;;;4226977;27;20070;-63
2021/10/20 00:11:16;;;;;;;9.98;8.88;;;17.30;96.80;;;;;;4212425;27;20130;-62
2021/10/20 00:13:38;;;;;;;9.63;8.73;;;17.30;96.80;;;;;;4203531;28;20413;-63
2021/10/20 00:16:00;;;;;;;9.80;8.80;;;17.30;96.90;;;;;;4208262;27;20070;-62
2021/10/20 00:18:22;;;;;;;8.98;8.10;;;17.30;96.90;;;;;;4210148;28;20070;-63
2021/10/20 00:20:45;;;;;;;9.10;8.32;;;17.30;96.90;;;;;;4210012;28;20173;-63
2021/10/20 00:23:08;;;;;;;8.95;8.10;;;17.30;96.80;;;;;;4209876;28;20131;-63
2021/10/20 00:25:31;;;;;;;9.00;8.07;;;17.30;96.70;;;;;;4208791;28;20599;-63
2021/10/20 00:27:54;;;;;;;10.30;9.30;;;17.30;96.80;;;;;;4225616;27;20126;-62
2021/10/20 00:30:18;;;;;;;8.27;7.57;;;17.30;96.80;;;;;;4226113;27;20051;-63
2021/10/20 00:32:40;;;;;;;10.48;8.60;;;17.30;96.70;;;;;;4226677;27;20060;-63
2021/10/20 00:35:02;;;;;;;10.23;9.23;;;17.30;96.70;;;;;;4216420;27;20036;-63
2021/10/20 00:37:24;;;;;;;10.30;9.02;;;17.30;96.80;;;;;;4209804;28;20522;-63
2021/10/20 00:39:46;;;;;;;10.00;8.93;;;17.30;96.80;;;;;;4209802;28;20379;-63
2021/10/20 00:42:08;;;;;;;8.95;8.15;;;17.30;96.60;;;;;;4209731;28;20521;-63
2021/10/20 00:44:45;;;;;;;9.02;8.18;;;17.30;96.60;;;;;;4202698;27;20055;-63
2021/10/20 00:47:09;;;;;;;9.50;8.70;;;17.30;96.80;;;;;;4224782;27;20051;-64
2021/10/20 00:49:31;;;;;;;11.13;8.70;;;17.30;96.70;;;;;;4204320;28;20048;-64
2021/10/20 00:51:53;;;;;;;9.13;8.23;;;17.30;96.70;;;;;;4226386;27;20048;-63
2021/10/20 00:54:15;;;;;;;8.45;7.65;;;17.30;96.60;;;;;;4220282;27;20059;-63
2021/10/20 00:56:37;;;;;;;8.13;7.43;;;17.30;96.60;;;;;;4209594;28;20149;-63
2021/10/20 00:59:00;;;;;;;9.65;8.07;;;17.30;96.80;;;;;;4218881;27;20071;-63
2021/10/20 01:01:23;;;;;;;8.70;7.93;;;17.30;96.60;;;;;;4226235;27;20077;-64
2021/10/20 01:03:46;;;;;;;8.77;7.43;;;17.30;96.60;;;;;;4226349;27;20043;-64
2021/10/20 01:06:08;;;;;;;8.25;7.55;;;17.30;96.60;;;;;;4226488;27;20080;-63
2021/10/20 01:08:31;;;;;;;8.80;7.97;;;17.30;96.60;;;;;;4220854;27;20055;-63
2021/10/20 01:10:53;;;;;;;7.50;6.88;;;17.30;96.60;;;;;;4209725;28;20044;-63
2021/10/20 01:13:15;;;;;;;8.43;7.68;;;17.30;96.60;;;;;;4209199;28;20052;-64
2021/10/20 01:15:37;;;;;;;9.55;7.30;;;17.30;96.80;;;;;;4209260;28;20047;-63
2021/10/20 01:18:02;;;;;;;8.85;7.22;;;17.30;96.70;;;;;;4207334;28;20044;-64
2021/10/20 01:20:29;;;;;;;8.18;7.38;;;17.30;96.70;;;;;;4209119;28;20121;-64
2021/10/20 01:22:53;;;;;;;7.57;6.53;;;17.30;96.60;;;;;;4208938;28;20044;-63
2021/10/20 01:25:15;;;;;;;9.98;7.28;;;17.30;96.50;;;;;;4209258;28;20490;-63
2021/10/20 01:27:37;;;;;;;7.50;6.80;;;17.30;96.50;;;;;;4210979;27;20075;-63
2021/10/20 01:30:00;;;;;;;7.63;6.93;;;17.30;96.50;;;;;;4225793;27;20131;-64
2021/10/20 01:32:22;;;;;;;7.65;7.05;;;17.30;96.60;;;;;;4226150;27;20496;-64
2021/10/20 01:34:44;;;;;;;6.90;6.20;;;17.30;96.60;;;;;;4225856;27;20134;-64
2021/10/20 01:37:07;;;;;;;6.88;6.28;;;17.30;96.50;;;;;;4223855;27;20043;-64
2021/10/20 01:39:30;;;;;;;6.88;6.18;;;17.30;96.50;;;;;;4205252;28;20051;-64
2021/10/20 01:41:52;;;;;;;6.60;6.10;;;17.30;96.50;;;;;;4208429;28;20493;-64
2021/10/20 01:44:14;;;;;;;7.15;6.47;;;17.20;96.40;;;;;;4225707;27;20050;-64
2021/10/20 01:46:37;;;;;;;7.10;6.40;;;17.30;96.80;;;;;;4225323;27;20051;-64
2021/10/20 01:48:59;;;;;;;7.20;6.43;;;17.30;96.40;;;;;;4208380;28;20044;-64
2021/10/20 01:51:21;;;;;;;7.32;6.72;;;17.30;96.40;;;;;;4191971;28;20041;-63
2021/10/20 01:53:44;;;;;;;7.07;6.38;;;17.30;96.30;;;;;;4191956;28;20076;-64
2021/10/20 01:56:08;;;;;;;6.43;5.93;;;17.30;96.30;;;;;;4191969;28;20495;-63
2021/10/20 01:58:30;;;;;;;8.10;6.70;;;17.30;96.30;;;;;;4191476;28;20049;-63
2021/10/20 02:00:52;;;;;;;7.57;6.55;;;17.30;96.20;;;;;;4191377;28;20110;-63
2021/10/20 02:03:14;;;;;;;6.75;6.15;;;17.30;96.20;;;;;;4225364;27;20134;-64
2021/10/20 02:05:37;;;;;;;6.75;6.05;;;17.30;96.20;;;;;;4225234;27;20485;-63
2021/10/20 02:07:59;;;;;;;8.30;6.05;;;17.30;96.10;;;;;;4225444;27;20556;-63
2021/10/20 02:10:21;;;;;;;6.55;5.93;;;17.30;96.10;;;;;;4197619;28;20070;-63
2021/10/20 02:12:45;;;;;;;7.57;6.53;;;17.30;96.10;;;;;;4208325;28;20410;-63
2021/10/20 02:15:08;;;;;;;6.15;5.55;;;17.30;96.00;;;;;;4208567;28;20071;-63
2021/10/20 02:17:30;;;;;;;6.55;6.05;;;17.30;96.00;;;;;;4208275;28;20084;-63
2021/10/20 02:19:52;;;;;;;6.63;6.00;;;17.30;96.00;;;;;;4219229;27;20165;-63
2021/10/20 02:22:15;;;;;;;7.35;5.60;;;17.30;95.90;;;;;;4206298;28;20040;-63
2021/10/20 02:24:37;;;;;;;6.65;5.90;;;17.30;95.90;;;;;;4208001;28;20462;-63
2021/10/20 02:26:59;;;;;;;6.85;6.25;;;17.20;95.80;;;;;;4208360;28;20402;-63
2021/10/20 02:29:22;;;;;;;7.07;5.60;;;17.30;95.80;;;;;;4208014;28;20090;-63
2021/10/20 02:31:46;;;;;;;6.97;6.22;;;17.30;96.20;;;;;;4223679;27;20448;-63
2021/10/20 02:34:09;;;;;;;6.13;5.63;;;17.30;95.70;;;;;;4224750;27;20120;-63
2021/10/20 02:36:32;;;;;;;7.38;6.05;;;17.30;95.60;;;;;;4224829;27;20047;-62
2021/10/20 02:38:53;;;;;;;6.65;5.70;;;17.30;95.60;;;;;;4224801;27;20097;-63
2021/10/20 02:41:16;;;;;;;6.72;6.00;;;17.30;95.60;;;;;;4224998;27;20047;-63
2021/10/20 02:43:39;;;;;;;6.82;6.20;;;17.30;95.60;;;;;;4207576;28;20456;-63
2021/10/20 02:46:03;;;;;;;7.15;6.45;;;17.30;95.50;;;;;;4207955;28;20464;-63
2021/10/20 02:48:25;;;;;;;6.70;6.05;;;17.30;95.50;;;;;;4223054;27;20060;-63
2021/10/20 02:50:47;;;;;;;6.97;6.20;;;17.30;95.40;;;;;;4225005;27;20048;-63
2021/10/20 02:53:10;;;;;;;6.60;5.90;;;17.30;95.40;;;;;;4224631;27;20447;-63
2021/10/20 02:55:32;;;;;;;7.60;6.20;;;17.30;95.40;;;;;;4210471;28;20040;-65
2021/10/20 02:57:54;;;;;;;6.30;5.72;;;17.20;95.30;;;;;;4207833;28;20048;-63
2021/10/20 03:00:17;;;;;;;5.85;5.43;;;17.30;95.20;;;;;;4206977;28;20744;-63
2021/10/20 03:02:41;;;;;;;6.65;5.78;;;17.30;95.40;;;;;;4191293;28;20231;-64
2021/10/20 03:05:03;;;;;;;7.00;5.85;;;17.20;95.30;;;;;;4190958;28;20291;-65
2021/10/20 03:07:25;;;;;;;6.45;5.85;;;17.20;95.30;;;;;;4211527;27;20058;-65
2021/10/20 03:09:48;;;;;;;6.78;6.03;;;17.30;95.30;;;;;;4209094;27;20452;-63
2021/10/20 03:12:10;;;;;;;6.47;5.88;;;17.20;95.20;;;;;;4207749;28;20080;-63
2021/10/20 03:14:32;;;;;;;8.13;6.40;;;17.20;95.20;;;;;;4190988;28;20135;-64
2021/10/20 03:16:54;;;;;;;6.47;5.88;;;17.20;95.20;;;;;;4191013;28;20090;-63
2021/10/20 03:19:17;;;;;;;6.10;5.55;;;17.20;95.10;;;;;;4204527;27;20513;-66
2021/10/20 03:21:40;;;;;;;6.07;5.65;;;17.20;95.20;;;;;;4224670;27;20142;-65
2021/10/20 03:24:02;;;;;;;6.82;6.03;;;17.20;95.10;;;;;;4224580;27;20402;-65
2021/10/20 03:26:24;;;;;;;7.20;6.50;;;17.20;95.20;;;;;;4219680;27;20117;-64
2021/10/20 03:28:46;;;;;;;8.27;6.28;;;17.20;95.20;;;;;;4207851;28;20046;-66
2021/10/20 03:31:09;;;;;;;6.72;6.00;;;17.20;95.20;;;;;;4207612;28;20055;-64
2021/10/20 03:33:30;;;;;;;6.45;5.85;;;17.20;95.20;;;;;;4209308;28;20048;-63
2021/10/20 03:35:54;;;;;;;8.10;6.25;;;17.20;95.20;;;;;;4210810;28;20118;-64
2021/10/20 03:38:16;;;;;;;6.68;6.07;;;17.20;95.20;;;;;;4194130;28;20514;-65
2021/10/20 03:40:38;;;;;;;7.05;6.38;;;17.20;95.20;;;;;;4203557;28;20077;-66
2021/10/20 03:43:03;;;;;;;6.68;6.07;;;17.20;95.10;;;;;;4210931;28;20054;-64
2021/10/20 03:45:25;;;;;;;6.63;6.00;;;17.20;95.20;;;;;;4210746;28;20502;-65
2021/10/20 03:47:47;;;;;;;6.30;5.45;;;17.20;95.40;;;;;;4219796;27;20146;-66
2021/10/20 03:50:11;;;;;;;6.63;5.95;;;17.20;95.40;;;;;;4227609;27;20051;-65
2021/10/20 03:52:34;;;;;;;6.88;6.32;;;17.20;95.50;;;;;;4227415;27;20050;-65
2021/10/20 03:54:57;;;;;;;8.07;7.07;;;17.20;95.30;;;;;;4227989;27;20046;-65
2021/10/20 03:57:19;;;;;;;10.85;6.70;;;17.20;95.40;;;;;;4213269;27;20105;-65
2021/10/20 03:59:42;;;;;;;8.68;6.97;;;17.20;95.40;;;;;;4210421;28;20045;-65
2021/10/20 04:02:05;;;;;;;7.07;6.47;;;17.20;95.50;;;;;;4210281;28;20040;-65
2021/10/20 04:04:27;;;;;;;11.00;6.80;;;17.20;95.30;;;;;;4210082;28;20044;-65
2021/10/20 04:06:49;;;;;;;9.00;7.28;;;17.20;95.50;;;;;;4222059;27;20051;-65
2021/10/20 04:09:12;;;;;;;7.20;6.45;;;17.20;95.50;;;;;;4227109;27;20493;-65
2021/10/20 04:11:34;;;;;;;8.32;6.20;;;17.20;95.50;;;;;;4227016;27;20062;-64
2021/10/20 04:13:56;;;;;;;7.45;6.70;;;17.20;95.30;;;;;;4226993;27;20043;-64
2021/10/20 04:16:19;;;;;;;8.00;7.25;;;17.20;95.30;;;;;;4218339;27;20139;-64
2021/10/20 04:18:41;;;;;;;13.77;7.88;;;17.20;95.30;;;;;;4210042;28;20082;-64
2021/10/20 04:21:03;;;;;;;7.88;7.07;;;17.20;95.40;;;;;;4209924;28;20040;-64
2021/10/20 04:23:26;;;;;;;7.30;5.95;;;17.20;95.30;;;;;;4210092;28;20491;-64
2021/10/20 04:25:50;;;;;;;8.93;7.53;;;17.20;95.30;;;;;;4210037;28;20464;-65
2021/10/20 04:28:11;;;;;;;8.23;7.20;;;17.20;95.30;;;;;;4216748;27;20056;-61
2021/10/20 04:30:34;;;;;;;8.10;6.95;;;17.20;95.30;;;;;;4226449;27;20096;-65
2021/10/20 04:32:55;;;;;;;8.07;7.38;;;17.20;95.40;;;;;;4226938;27;20134;-65
2021/10/20 04:35:22;;;;;;;9.15;7.22;;;17.20;95.30;;;;;;4226423;27;20047;-66
2021/10/20 04:37:44;;;;;;;9.32;6.97;;;17.20;95.30;;;;;;4226950;27;20036;-66
2021/10/20 04:40:08;;;;;;;7.70;7.00;;;17.20;95.30;;;;;;4220013;27;20060;-66
2021/10/20 04:42:32;;;;;;;9.05;6.60;;;17.20;95.30;;;;;;4209392;28;20116;-66
2021/10/20 04:44:54;;;;;;;8.23;7.30;;;17.20;95.20;;;;;;4209307;28;20452;-66
2021/10/20 04:47:16;;;;;;;7.30;6.68;;;17.20;95.30;;;;;;4209205;28;20047;-66
2021/10/20 04:49:39;;;;;;;8.30;6.97;;;17.20;95.60;;;;;;4209791;28;20724;-66
2021/10/20 04:52:01;;;;;;;7.35;6.65;;;17.20;95.10;;;;;;4216303;27;20456;-65
2021/10/20 04:54:23;;;;;;;9.00;7.88;;;17.20;95.10;;;;;;4226231;27;20051;-65
2021/10/20 04:56:45;;;;;;;7.20;6.60;;;17.20;95.20;;;;;;4218419;27;20044;-65
2021/10/20 04:59:09;;;;;;;7.75;6.80;;;17.20;95.20;;;;;;4209455;28;20113;-65
2021/10/20 05:01:31;;;;;;;8.15;6.63;;;17.20;95.10;;;;;;4209496;28;20106;-64
2021/10/20 05:03:53;;;;;;;8.70;7.45;;;17.20;95.10;;;;;;4212598;27;20051;-65
2021/10/20 05:06:15;;;;;;;8.02;6.65;;;17.20;95.10;;;;;;4224908;27;20052;-65
2021/10/20 05:08:37;;;;;;;8.80;7.32;;;17.20;95.10;;;;;;4226141;27;20473;-65
2021/10/20 05:10:59;;;;;;;8.82;7.53;;;17.20;95.10;;;;;;4226089;27;20512;-65
2021/10/20 05:13:21;;;;;;;8.65;7.75;;;17.20;95.00;;;;;;4225683;27;20494;-64
2021/10/20 05:15:45;;;;;;;8.32;7.28;;;17.20;95.10;;;;;;4221275;27;20426;-64
2021/10/20 05:18:07;;;;;;;8.07;7.38;;;17.20;95.10;;;;;;4224179;27;20043;-64
2021/10/20 05:20:29;;;;;;;9.25;7.90;;;17.20;95.00;;;;;;4225881;27;20413;-65
2021/10/20 05:22:51;;;;;;;9.27;8.02;;;17.20;95.10;;;;;;4226479;27;20060;-64
2021/10/20 05:25:15;;;;;;;7.90;6.82;;;17.20;95.10;;;;;;4224503;27;20044;-65
2021/10/20 05:27:37;;;;;;;8.25;7.40;;;17.20;95.20;;;;;;4221668;27;20105;-65
2021/10/20 05:29:59;;;;;;;8.88;7.78;;;17.20;95.40;;;;;;4208880;28;20071;-65
2021/10/20 05:32:23;;;;;;;8.80;7.95;;;17.20;94.90;;;;;;4208905;28;20051;-65
2021/10/20 05:34:45;;;;;;;8.80;8.00;;;17.20;94.80;;;;;;4208836;28;20502;-65
2021/10/20 05:37:07;;;;;;;9.90;8.02;;;17.20;95.00;;;;;;4208694;28;20055;-65
2021/10/20 05:39:30;;;;;;;8.30;7.60;;;17.20;95.00;;;;;;4210974;27;20101;-66
2021/10/20 05:41:52;;;;;;;9.38;8.35;;;17.20;94.90;;;;;;4225534;27;20514;-65
2021/10/20 05:44:14;;;;;;;10.40;8.68;;;17.20;94.90;;;;;;4225625;27;20051;-65
2021/10/20 05:46:36;;;;;;;9.00;8.20;;;17.20;94.80;;;;;;4225105;27;20100;-64
2021/10/20 05:48:59;;;;;;;8.80;7.93;;;17.20;94.70;;;;;;4225314;27;20043;-64
2021/10/20 05:51:22;;;;;;;10.38;8.27;;;17.20;94.60;;;;;;4221830;27;20048;-65
2021/10/20 05:53:44;;;;;;;10.02;8.88;;;17.20;94.60;;;;;;4208707;28;20509;-64
2021/10/20 05:56:06;;;;;;;9.80;7.78;;;17.20;94.40;;;;;;4207876;28;20054;-64
2021/10/20 05:58:29;;;;;;;10.88;8.45;;;17.20;94.40;;;;;;4208382;28;20052;-65
2021/10/20 06:00:52;;;;;;;11.98;8.90;;;17.20;94.30;;;;;;4207177;28;20070;-62
2021/10/20 06:03:14;;;;;;;9.82;8.88;;;17.20;94.80;;;;;;4214906;27;20070;-67
2021/10/20 06:05:37;;;;;;;10.32;8.93;;;17.20;94.60;;;;;;4225404;27;20063;-62
2021/10/20 06:07:59;;;;;;;11.07;9.82;;;17.20;94.90;;;;;;4225324;27;20047;-62
2021/10/20 06:10:21;;;;;;;10.07;8.40;;;17.30;94.70;;;;;;4224994;27;20413;-62
2021/10/20 06:12:44;;;;;;;10.38;8.82;;;17.30;94.60;;;;;;4223998;27;20168;-63
2021/10/20 06:15:08;;;;;;;8.88;8.07;;;17.30;94.50;;;;;;4213772;27;20055;-64
2021/10/20 06:17:46;;;;;;;10.20;8.68;;;17.30;94.30;;;;;;4191566;28;20049;-64
2021/10/20 06:20:09;;;;;;;9.07;8.23;;;17.20;94.30;;;;;;4219355;27;20049;-63
2021/10/20 06:22:33;;;;;;;10.10;8.90;;;17.20;94.20;;;;;;4212131;27;20055;-63
2021/10/20 06:24:55;;;;;;;15.35;9.57;;;17.20;94.00;;;;;;4207911;28;20052;-64
2021/10/20 06:27:18;;;;;;;9.35;8.38;;;17.20;94.00;;;;;;4211345;27;20804;-63
2021/10/20 06:29:40;;;;;;;10.88;8.60;;;17.20;93.80;;;;;;4222916;27;20130;-63
2021/10/20 06:32:03;;;;;;;9.65;8.68;;;17.20;93.80;;;;;;4219207;27;20047;-62
2021/10/20 06:34:25;;;;;;;9.27;8.35;;;17.20;93.90;;;;;;4207256;28;20120;-63
2021/10/20 06:36:48;;;;;;;11.52;7.97;;;17.20;94.00;;;;;;4208042;28;20048;-63
2021/10/20 06:39:20;;;;;;;11.07;8.63;;;17.20;93.90;;;;;;4207576;28;20048;-63
2021/10/20 06:41:42;;;;;;;9.95;8.52;;;17.20;93.90;;;;;;4206594;28;20405;-63
2021/10/20 06:44:05;;;;;;;9.48;8.48;;;17.20;94.20;;;;;;4191148;28;20055;-63
2021/10/20 06:46:27;;;;;;;9.85;8.95;;;17.20;94.00;;;;;;4216267;27;20047;-63
2021/10/20 06:48:49;;;;;;;11.70;8.05;;;17.20;93.90;;;;;;4224809;27;20047;-62
2021/10/20 06:51:11;;;;;;;8.98;8.07;;;17.20;94.10;;;;;;4222251;27;20051;-63
2021/10/20 06:53:33;;;;;;;9.85;8.75;;;17.20;94.10;;;;;;4207771;28;20044;-62
2021/10/20 06:55:57;;;;;;;8.73;7.82;;;17.20;94.00;;;;;;4207894;28;20054;-63
2021/10/20 06:58:19;;;;;;;9.05;8.15;;;17.20;94.30;;;;;;4193782;28;20044;-62
2021/10/20 07:00:41;;;;;;;10.95;9.13;;;17.30;94.50;;;;;;4191175;28;20057;-62
2021/10/20 07:03:04;;;;;;;9.38;8.27;;;17.50;94.10;;;;;;4191199;28;20044;-62
2021/10/20 07:05:26;;;;;;;9.52;8.60;;;17.70;93.80;;;;;;4203253;27;20101;-62
2021/10/20 07:07:48;;;;;;;10.02;7.82;;;17.90;93.50;;;;;;4201070;27;20036;-62
2021/10/20 07:10:11;;;;;;;9.27;8.10;;;18.20;93.10;;;;;;4224311;27;20054;-62
2021/10/20 07:12:35;;;;;;;9.07;8.23;;;18.50;92.60;;;;;;4211112;28;20050;-61
2021/10/20 07:14:57;;;;;;;9.65;8.82;;;18.70;92.00;;;;;;4213732;27;20483;-61
2021/10/20 07:17:19;;;;;;;12.95;8.20;;;19.00;91.50;;;;;;4227091;27;20120;-62
2021/10/20 07:19:41;;;;;;;9.20;8.30;;;19.20;91.00;;;;;;4227631;27;20101;-58
2021/10/20 07:22:03;;;;;;;9.15;8.25;;;19.30;90.70;;;;;;4199040;28;20043;-62
2021/10/20 07:24:26;;;;;;;11.18;9.10;;;19.30;90.60;;;;;;4210507;28;20046;-63
2021/10/20 07:26:48;;;;;;;8.65;7.55;;;19.40;90.50;;;;;;4210900;28;20052;-63
2021/10/20 07:29:12;;;;;;;7.90;7.10;;;19.30;90.40;;;;;;4210410;28;20040;-63
2021/10/20 07:31:34;;;;;;;9.20;7.38;;;19.30;90.40;;;;;;4211176;28;20414;-63
2021/10/20 07:33:56;;;;;;;9.50;8.60;;;19.30;90.40;;;;;;4210874;28;20493;-63
2021/10/20 07:36:18;;;;;;;10.68;8.73;;;19.20;90.50;;;;;;4210146;28;20046;-63
2021/10/20 07:38:40;;;;;;;8.10;7.30;;;19.10;90.70;;;;;;4210802;28;20163;-63
2021/10/20 07:41:03;;;;;;;9.60;8.38;;;19.10;91.20;;;;;;4209968;28;20523;-63
2021/10/20 07:43:25;;;;;;;10.23;9.23;;;19.00;90.90;;;;;;4210441;28;20072;-62
2021/10/20 07:45:49;;;;;;;9.57;8.52;;;19.10;90.90;;;;;;4203454;28;20043;-62
2021/10/20 07:48:11;;;;;;;9.57;8.68;;;19.10;90.80;;;;;;4210617;28;20051;-63
2021/10/20 07:50:34;;;;;;;9.63;8.63;;;19.10;90.80;;;;;;4210816;28;20487;-64
2021/10/20 07:52:55;;;;;;;10.13;9.13;;;19.10;90.80;;;;;;4210490;28;20044;-62
2021/10/20 07:55:20;;;;;;;9.48;8.27;;;19.10;90.80;;;;;;4225574;27;20100;-64
2021/10/20 07:57:46;;;;;;;10.68;9.52;;;19.10;90.80;;;;;;4225944;27;20048;-63
2021/10/20 08:00:10;;;;;;;9.35;7.95;;;19.00;90.80;;;;;;4198157;28;20112;-62
2021/10/20 08:02:34;;;;;;;8.60;7.78;;;19.00;90.80;;;;;;4209208;28;20101;-63
2021/10/20 08:04:56;;;;;;;19.35;8.75;;;19.00;91.30;;;;;;4210340;28;20512;-62
2021/10/20 08:07:19;;;;;;;9.55;7.20;;;19.00;90.90;;;;;;4210030;28;20132;-62
2021/10/20 08:09:42;;;;;;;7.70;7.00;;;19.00;90.90;;;;;;4210061;28;20054;-61
2021/10/20 08:12:05;;;;;;;8.05;7.35;;;18.90;91.20;;;;;;4210293;28;20417;-62
2021/10/20 08:14:29;;;;;;;10.18;7.60;;;18.90;90.80;;;;;;4209023;28;20047;-63
2021/10/20 08:16:52;;;;;;;7.35;6.65;;;18.80;90.90;;;;;;4209786;28;20040;-63
2021/10/20 08:19:16;;;;;;;8.77;6.95;;;18.90;90.90;;;;;;4208322;28;20068;-62
2021/10/20 08:21:38;;;;;;;7.53;6.82;;;18.90;90.90;;;;;;4210012;28;20048;-62
2021/10/20 08:24:00;;;;;;;7.53;6.85;;;18.90;90.80;;;;;;4207943;28;20537;-63
2021/10/20 08:26:22;;;;;;;7.88;6.78;;;18.90;90.80;;;;;;4209740;28;20044;-62
2021/10/20 08:28:44;;;;;;;6.50;5.93;;;18.90;90.80;;;;;;4209798;28;20052;-62
2021/10/20 08:31:06;;;;;;;7.57;6.80;;;18.90;90.80;;;;;;4209994;28;20071;-63
2021/10/20 08:33:29;;;;;;;7.65;6.82;;;18.80;90.90;;;;;;4209009;28;20048;-65
2021/10/20 08:35:54;;;;;;;6.68;6.03;;;18.80;90.90;;;;;;4206921;28;20044;-65
2021/10/20 08:38:16;;;;;;;6.78;5.85;;;18.80;91.00;;;;;;4208517;28;20516;-67
2021/10/20 08:40:45;;;;;;;6.85;6.13;;;18.90;91.00;;;;;;4208202;28;20494;-64
2021/10/20 08:43:07;;;;;;;7.00;6.15;;;19.00;90.80;;;;;;4209030;28;20051;-64
2021/10/20 08:45:29;;;;;;;6.57;5.97;;;19.00;90.60;;;;;;4209438;28;20071;-64
2021/10/20 08:47:52;;;;;;;6.50;5.88;;;19.10;90.50;;;;;;4206383;28;20056;-64
2021/10/20 08:50:19;;;;;;;6.45;5.85;;;19.10;90.50;;;;;;4209816;28;20036;-65
2021/10/20 08:52:42;;;;;;;6.53;5.93;;;19.10;90.50;;;;;;4209464;28;20409;-65
2021/10/20 08:55:05;;;;;;;5.68;5.18;;;19.00;90.50;;;;;;4209321;28;20055;-62
2021/10/20 08:57:28;;;;;;;6.32;5.80;;;19.00;90.50;;;;;;4209331;28;20055;-64
2021/10/20 08:59:50;;;;;;;6.22;5.70;;;18.90;90.60;;;;;;4209606;28;20044;-63
2021/10/20 09:02:13;;;;;;;5.72;5.20;;;18.90;90.70;;;;;;4209285;28;20087;-64
2021/10/20 09:04:36;;;;;;;6.68;5.97;;;18.80;90.80;;;;;;4226302;27;20059;-63
2021/10/20 09:07:01;;;;;;;5.43;4.97;;;18.80;90.90;;;;;;4217060;27;20043;-64
2021/10/20 09:09:33;;;;;;;5.38;4.88;;;18.70;90.90;;;;;;4219552;27;20052;-64
2021/10/20 09:11:55;;;;;;;8.20;5.88;;;18.70;91.10;;;;;;4225808;27;20055;-63
2021/10/20 09:14:19;;;;;;;6.45;5.50;;;18.70;91.20;;;;;;4226116;27;20704;-62
2021/10/20 09:16:44;;;;;;;7.28;5.57;;;18.60;91.20;;;;;;4223112;27;20126;-63
2021/10/20 09:19:13;;;;;;;6.60;5.38;;;18.60;91.40;;;;;;4209076;28;20079;-63
2021/10/20 09:21:47;;;;;;;5.28;4.70;;;18.50;91.40;;;;;;4218216;27;20055;-63
2021/10/20 09:24:11;;;;;;;7.22;5.38;;;18.50;91.90;;;;;;4223822;27;20047;-63
2021/10/20 09:26:34;;;;;;;9.57;5.57;;;18.50;91.70;;;;;;4209077;28;20051;-64
2021/10/20 09:29:20;;;;;;;6.05;4.80;;;18.60;91.60;;;;;;4208630;28;20052;-63
2021/10/20 09:31:44;;;;;;;5.95;5.32;;;18.70;91.40;;;;;;4208330;28;20060;-62
2021/10/20 09:34:08;;;;;;;5.03;4.63;;;18.70;91.10;;;;;;4208656;28;20128;-64
2021/10/20 09:36:31;;;;;;;5.38;4.95;;;18.80;91.00;;;;;;4208882;28;20050;-63
2021/10/20 09:38:53;;;;;;;6.80;6.15;;;18.80;91.40;;;;;;4208527;28;20052;-63
2021/10/20 09:41:15;;;;;;;4.82;4.43;;;18.80;91.00;;;;;;4208281;28;20075;-62
2021/10/20 09:43:43;;;;;;;6.05;5.47;;;18.80;90.90;;;;;;4208327;28;20072;-62
2021/10/20 09:46:05;;;;;;;5.50;4.40;;;18.80;90.90;;;;;;4208760;28;20406;-65
2021/10/20 09:48:27;;;;;;;6.90;5.40;;;18.80;91.00;;;;;;4208039;28;20121;-63
2021/10/20 09:50:58;;;;;;;5.05;4.68;;;18.70;91.00;;;;;;4208221;28;20490;-63
2021/10/20 09:53:20;;;;;;;4.90;4.50;;;18.70;91.10;;;;;;4207774;28;20052;-63
2021/10/20 09:55:43;;;;;;;5.18;4.78;;;18.70;91.20;;;;;;4207754;28;20145;-63
2021/10/20 09:58:12;;;;;;;4.45;4.07;;;18.60;91.20;;;;;;4207080;28;20048;-63
2021/10/20 10:00:35;;;;;;;5.38;4.55;;;18.60;91.30;;;;;;4207959;28;20058;-61
2021/10/20 10:02:58;;;;;;;5.55;5.13;;;18.50;91.40;;;;;;4208237;28;20048;-64
2021/10/20 10:05:21;;;;;;;8.70;5.05;;;18.50;91.90;;;;;;4208210;28;20071;-63
2021/10/20 10:07:43;;;;;;;5.90;5.30;;;18.50;91.60;;;;;;4207903;28;20090;-63
2021/10/20 10:10:06;;;;;;;6.55;4.85;;;18.50;91.70;;;;;;4191643;28;20044;-62
2021/10/20 10:12:29;;;;;;;7.88;4.95;;;18.50;91.80;;;;;;4206928;28;20490;-64
2021/10/20 10:14:55;;;;;;;5.45;4.95;;;18.40;91.90;;;;;;4207972;28;20472;-64
2021/10/20 10:17:41;;;;;;;4.57;4.20;;;18.40;92.00;;;;;;4207787;28;20051;-65
2021/10/20 10:20:09;;;;;;;5.78;5.38;;;18.40;92.10;;;;;;4208269;28;20066;-65
2021/10/20 10:22:31;;;;;;;6.40;4.72;;;18.40;92.10;;;;;;4207629;28;20056;-62
2021/10/20 10:24:54;;;;;;;5.85;5.43;;;18.30;92.20;;;;;;4208244;28;20043;-64
2021/10/20 10:27:17;;;;;;;5.68;5.18;;;18.30;92.20;;;;;;4208097;28;20055;-63
2021/10/20 10:29:48;;;;;;;4.65;4.25;;;18.30;92.30;;;;;;4208065;28;20059;-62
2021/10/20 10:32:12;;;;;;;4.95;4.60;;;18.30;92.40;;;;;;4190915;28;20048;-62
2021/10/20 10:34:38;;;;;;;5.45;4.95;;;18.20;92.40;;;;;;4191161;28;20521;-62
2021/10/20 10:37:01;;;;;;;4.53;4.18;;;18.20;92.50;;;;;;4191177;28;20736;-63
2021/10/20 10:39:23;;;;;;;5.00;4.70;;;18.20;92.50;;;;;;4195414;28;20500;-62
2021/10/20 10:41:48;;;;;;;4.38;4.07;;;18.20;92.60;;;;;;4224797;27;20417;-62
2021/10/20 10:44:21;;;;;;;4.95;4.55;;;18.20;92.60;;;;;;4224678;27;20043;-63
2021/10/20 10:47:04;;;;;;;4.95;4.53;;;18.10;92.60;;;;;;4218532;27;20051;-65
2021/10/20 10:49:29;;;;;;;4.63;4.22;;;18.20;92.70;;;;;;4220209;27;20055;-66
2021/10/20 10:52:19;;;;;;;5.25;4.78;;;18.10;92.70;;;;;;4198228;28;20052;-63
2021/10/20 10:54:54;;;;;;;4.88;4.35;;;18.10;92.80;;;;;;4190977;28;20290;-66
2021/10/20 10:57:17;;;;;;;4.82;4.47;;;18.10;92.90;;;;;;4190834;28;20505;-65
2021/10/20 10:59:38;;;;;;;5.00;4.60;;;18.10;92.90;;;;;;4191313;28;20418;-64
2021/10/20 11:02:01;;;;;;;5.28;4.78;;;18.10;92.90;;;;;;4202822;27;20047;-64
2021/10/20 11:04:25;;;;;;;5.22;4.38;;;18.10;93.00;;;;;;4219669;27;20044;-65
2021/10/20 11:06:48;;;;;;;4.70;4.28;;;18.00;93.00;;;;;;4204852;28;20101;-65
2021/10/20 11:09:15;;;;;;;4.85;4.55;;;18.00;93.00;;;;;;4208019;27;20051;-65
2021/10/20 11:11:37;;;;;;;4.70;4.32;;;18.00;93.00;;;;;;4206792;27;20169;-65
2021/10/20 11:14:01;;;;;;;4.60;4.30;;;18.00;93.00;;;;;;4218684;27;20051;-66
2021/10/20 11:16:23;;;;;;;4.88;4.43;;;18.00;93.10;;;;;;4202749;27;20670;-63
2021/10/20 11:18:52;;;;;;;5.70;4.65;;;18.00;93.50;;;;;;4206162;28;20032;-65
2021/10/20 11:21:14;;;;;;;5.32;4.85;;;18.00;93.20;;;;;;4196137;28;20125;-66
2021/10/20 11:23:36;;;;;;;5.43;4.85;;;18.00;93.30;;;;;;4196351;28;20054;-64
2021/10/20 11:26:02;;;;;;;4.85;4.55;;;18.00;93.40;;;;;;4203127;28;20054;-64
2021/10/20 11:28:24;;;;;;;5.25;4.85;;;18.00;93.40;;;;;;4222318;27;20052;-62
2021/10/20 11:30:46;;;;;;;6.03;5.43;;;18.00;93.40;;;;;;4224495;27;20051;-63
2021/10/20 11:33:11;;;;;;;5.60;5.00;;;17.90;93.50;;;;;;4224453;27;20071;-63
2021/10/20 11:35:34;;;;;;;4.65;4.38;;;17.90;93.50;;;;;;4224300;27;20051;-62
2021/10/20 11:37:58;;;;;;;5.28;4.88;;;17.90;93.60;;;;;;4222742;27;20482;-62
2021/10/20 11:40:21;;;;;;;5.05;4.68;;;17.90;93.70;;;;;;4224234;27;20505;-65
2021/10/20 11:42:45;;;;;;;5.80;5.40;;;17.90;93.70;;;;;;4222935;27;20503;-65
2021/10/20 11:45:07;;;;;;;5.63;5.10;;;17.90;93.80;;;;;;4223970;27;20100;-64
2021/10/20 11:47:30;;;;;;;5.32;4.93;;;17.90;93.90;;;;;;4222674;27;20111;-64
2021/10/20 11:49:54;;;;;;;7.53;4.93;;;17.90;94.00;;;;;;4224171;27;20036;-63
2021/10/20 11:52:18;;;;;;;5.50;5.00;;;17.90;93.90;;;;;;4224223;27;20047;-64
2021/10/20 11:54:40;;;;;;;5.40;4.90;;;17.90;94.10;;;;;;4226460;27;20070;-64
2021/10/20 11:57:04;;;;;;;5.20;4.80;;;17.90;94.00;;;;;;4214367;27;20067;-64
2021/10/20 11:59:29;;;;;;;5.50;5.00;;;17.90;94.10;;;;;;4210501;28;20127;-65
2021/10/20 12:01:52;;;;;;;6.68;4.65;;;17.80;94.10;;;;;;4210310;28;20051;-64
2021/10/20 12:04:14;;;;;;;6.00;5.05;;;17.90;94.30;;;;;;4193548;28;20040;-63
2021/10/20 12:06:36;;;;;;;5.10;4.70;;;17.80;94.20;;;;;;4204539;28;20452;-64
2021/10/20 12:08:59;;;;;;;5.85;4.25;;;17.80;94.20;;;;;;4209967;28;20071;-64
2021/10/20 12:11:22;;;;;;;5.10;4.65;;;17.80;94.30;;;;;;4210226;28;20051;-64
2021/10/20 12:13:45;;;;;;;4.90;4.50;;;17.80;94.40;;;;;;4210083;28;20055;-65
2021/10/20 12:16:11;;;;;;;5.65;4.50;;;17.80;94.30;;;;;;4210142;28;20120;-65
2021/10/20 12:18:33;;;;;;;5.95;5.00;;;17.80;94.40;;;;;;4210497;28;20482;-65
2021/10/20 12:20:58;;;;;;;4.63;4.22;;;17.80;94.40;;;;;;4210158;28;20448;-66
2021/10/20 12:23:20;;;;;;;5.47;4.65;;;17.80;94.30;;;;;;4209696;28;20066;-65
2021/10/20 12:25:42;;;;;;;4.40;4.00;;;17.90;94.20;;;;;;4209924;28;20051;-64